Time;durP1;ratioP1;P1;durP2;ratioP2;P2;SDS_P1;SDS_P2;PMS_P1;PMS_P2;Temp;Humidity;BMP_temperature;BMP_pressure;BME280_temperature;BME280_humidity;BME280_pressure;Samples;Min_cycle;Max_cycle;Signal;HPM_P1;HPM_P2
2021/01/28 00:00:51;;;;;;;;;;;;;;;3.62;87.71;99393.03;1867468;77;20430;-40
2021/01/28 00:03:19;;;;;;;;;;;;;;;3.62;87.77;99393.03;1867606;77;20120;-40
2021/01/28 00:05:47;;;;;;;;;;;;;;;3.62;87.83;99402.11;1867388;77;20140;-42
2021/01/28 00:08:16;;;;;;;;;;;;;;;3.61;87.87;99399.09;1867358;77;20456;-39
2021/01/28 00:10:44;;;;;;;;;;;;;;;3.63;87.92;99399.08;1867491;77;20211;-39
2021/01/28 00:13:12;;;;;;;;;;;;;;;3.63;87.94;99399.08;1867501;77;20135;-41
2021/01/28 00:15:40;;;;;;;;;;;;;;;3.61;87.92;99409.02;1867464;77;20200;-39
2021/01/28 00:18:09;;;;;;;;;;;;;;;3.61;87.98;99419.81;1867541;77;20146;-39
2021/01/28 00:20:42;;;;;;;;;;;;;;;3.61;88.06;99401.24;1867519;77;20146;-39
2021/01/28 00:23:09;;;;;;;;;;;;;;;3.60;88.13;99397.40;1867570;77;20145;-40
2021/01/28 00:25:37;;;;;;;;;;;;;;;3.59;88.24;99420.29;1867532;77;20134;-39
2021/01/28 00:28:06;;;;;;;;;;;;;;;3.59;88.35;99418.56;1867271;77;20166;-39
2021/01/28 00:30:37;;;;;;;;;;;;;;;3.58;88.40;99441.45;1867136;77;20162;-40
2021/01/28 00:33:05;;;;;;;;;;;;;;;3.59;88.54;99395.67;1867434;77;20173;-40
2021/01/28 00:35:36;;;;;;;;;;;;;;;3.59;88.59;99422.45;1867397;77;20181;-40
2021/01/28 00:38:09;;;;;;;;;;;;;;;3.58;88.68;99445.34;1867241;77;20399;-40
2021/01/28 00:40:37;;;;;;;;;;;;;;;3.60;88.79;99425.47;1867118;77;20135;-39
2021/01/28 00:43:05;;;;;;;;;;;;;;;3.62;88.79;99426.72;1867251;77;20166;-38
2021/01/28 00:45:34;;;;;;;;;;;;;;;3.62;88.89;99433.20;1867460;77;20205;-39
2021/01/28 00:48:02;;;;;;;;;;;;;;;3.60;89.03;99407.77;1867387;77;20380;-38
2021/01/28 00:50:32;;;;;;;;;;;;;;;3.60;89.29;99431.95;1867428;77;20538;-40
2021/01/28 00:52:59;;;;;;;;;;;;;;;3.58;89.66;99399.13;1867395;77;20146;-38
2021/01/28 00:55:27;;;;;;;;;;;;;;;3.52;89.98;99377.17;1834235;77;20122;-38
2021/01/28 00:57:57;;;;;;;;;;;;;;;3.48;90.30;99379.34;1866422;77;20126;-39
2021/01/28 01:00:32;;;;;;;;;;;;;;;3.46;90.71;99391.48;1834969;75;20189;-40
2021/01/28 01:02:59;;;;;;;;;;;;;;;3.43;91.00;99377.24;1889353;75;20406;-39
2021/01/28 01:05:29;;;;;;;;;;;;;;;3.40;91.38;99382.47;1886532;75;20339;-40
2021/01/28 01:07:57;;;;;;;;;;;;;;;3.36;91.70;99406.66;1879582;75;20121;-39
2021/01/28 01:10:29;;;;;;;;;;;;;;;3.32;92.10;99392.89;1868387;75;20182;-39
2021/01/28 01:12:57;;;;;;;;;;;;;;;3.29;92.53;99381.25;1867513;77;20360;-39
2021/01/28 01:15:25;;;;;;;;;;;;;;;3.28;92.87;99382.58;1867231;77;20218;-40
2021/01/28 01:17:53;;;;;;;;;;;;;;;3.26;93.14;99386.47;1867492;77;20122;-37
2021/01/28 01:20:23;;;;;;;;;;;;;;;3.24;93.40;99354.54;1866496;77;20123;-38
2021/01/28 01:22:53;;;;;;;;;;;;;;;3.23;93.59;99379.14;1834242;77;20122;-40
2021/01/28 01:25:22;;;;;;;;;;;;;;;3.23;93.83;99383.03;1867292;77;20388;-39
2021/01/28 01:27:50;;;;;;;;;;;;;;;3.22;94.08;99366.63;1867372;77;20436;-39
2021/01/28 01:30:26;;;;;;;;;;;;;;;3.18;94.35;99368.83;1864766;77;20139;-40
2021/01/28 01:32:54;;;;;;;;;;;;;;;3.16;94.69;99383.52;1867226;77;20174;-40
2021/01/28 01:35:34;;;;;;;;;;;;;;;3.12;94.98;99360.69;1865601;77;20230;-39
2021/01/28 01:38:02;;;;;;;;;;;;;;;3.13;95.21;99375.79;1834335;77;20224;-40
2021/01/28 01:40:34;;;;;;;;;;;;;;;3.12;95.42;99363.71;1867334;77;20361;-41
2021/01/28 01:43:03;;;;;;;;;;;;;;;3.12;95.58;99350.33;1866835;77;20229;-40
2021/01/28 01:45:45;;;;;;;;;;;;;;;3.10;95.68;99331.34;1848218;77;20190;-40
2021/01/28 01:48:22;;;;;;;;;;;;;;;3.12;95.76;99343.00;1867463;77;20459;-39
2021/01/28 01:50:57;;;;;;;;;;;;;;;3.12;95.84;99349.47;1867345;77;20174;-41
2021/01/28 01:53:30;;;;;;;;;;;;;;;3.11;95.92;99359.39;1867543;77;20213;-39
2021/01/28 01:56:04;;;;;;;;;;;;;;;3.10;96.00;99366.73;1867235;77;20134;-39
2021/01/28 01:58:51;;;;;;;;;;;;;;;3.09;96.08;99366.30;1834623;77;20142;-39
2021/01/28 02:01:41;;;;;;;;;;;;;;;3.07;96.11;99362.89;1794760;80;20137;-40
2021/01/28 02:04:27;;;;;;;;;;;;;;;3.07;96.18;99355.13;1794747;80;20133;-39
2021/01/28 02:07:20;;;;;;;;;;;;;;;3.07;96.20;99348.66;1840326;77;20135;-39
2021/01/28 02:10:08;;;;;;;;;;;;;;;3.05;96.22;99350.39;1867436;77;20145;-41
2021/01/28 02:12:39;;;;;;;;;;;;;;;3.04;96.28;99347.38;1828320;78;20387;-39
2021/01/28 02:15:10;;;;;;;;;;;;;;;3.02;96.30;99342.66;1832350;78;20215;-39
2021/01/28 02:17:42;;;;;;;;;;;;;;;3.00;96.35;99350.86;1832166;78;20228;-39
2021/01/28 02:20:28;;;;;;;;;;;;;;;2.96;96.43;99356.48;1830336;78;20168;-38
2021/01/28 02:26:50;;;;;;;;;;;;;;;3.02;96.60;99343.49;1923204;74;20213;-39
2021/01/28 02:29:36;;;;;;;;;;;;;;;2.98;96.55;99330.16;1798297;79;20206;-39
2021/01/28 02:32:04;;;;;;;;;;;;;;;3.00;96.53;99336.63;1865409;75;20269;-39
2021/01/28 02:34:34;;;;;;;;;;;;;;;3.01;96.49;99339.64;1868899;75;20171;-40
2021/01/28 02:37:22;;;;;;;;;;;;;;;3.01;96.45;99334.47;1903059;75;20124;-39
2021/01/28 02:39:52;;;;;;;;;;;;;;;3.02;96.39;99329.72;1901698;75;20116;-39
2021/01/28 02:42:30;;;;;;;;;;;;;;;3.03;96.33;99327.09;1902444;75;20132;-40
2021/01/28 02:45:07;;;;;;;;;;;;;;;3.04;96.30;99305.52;1900706;75;20160;-40
2021/01/28 02:47:54;;;;;;;;;;;;;;;3.07;96.22;99296.88;1903142;75;20144;-39
2021/01/28 02:50:26;;;;;;;;;;;;;;;3.07;96.09;99286.52;1873999;75;20163;-38
2021/01/28 02:52:57;;;;;;;;;;;;;;;3.09;95.98;99280.44;1903133;75;20269;-38
2021/01/28 02:55:26;;;;;;;;;;;;;;;3.10;95.85;99281.30;1902905;75;20188;-38
2021/01/28 02:57:54;;;;;;;;;;;;;;;3.09;95.77;99282.16;1903086;75;20318;-38
2021/01/28 03:00:28;;;;;;;;;;;;;;;3.07;95.74;99278.75;1903211;75;20222;-39
2021/01/28 03:02:56;;;;;;;;;;;;;;;3.05;95.76;99268.40;1903007;75;20144;-38
2021/01/28 03:05:26;;;;;;;;;;;;;;;3.03;95.80;99274.02;1898125;75;20175;-39
2021/01/28 03:07:54;;;;;;;;;;;;;;;3.01;95.85;99278.38;1903186;75;20477;-40
2021/01/28 03:10:22;;;;;;;;;;;;;;;2.99;95.90;99277.52;1903044;75;20135;-39
2021/01/28 03:13:01;;;;;;;;;;;;;;;2.99;95.99;99275.37;1902966;75;20175;-37
2021/01/28 03:15:36;;;;;;;;;;;;;;;2.97;96.09;99265.45;1883445;75;20148;-38
2021/01/28 03:18:05;;;;;;;;;;;;;;;2.95;96.13;99270.67;1903251;75;20168;-38
2021/01/28 03:20:34;;;;;;;;;;;;;;;2.94;96.27;99276.71;1903050;75;20144;-38
2021/01/28 03:23:03;;;;;;;;;;;;;;;2.94;96.32;99279.73;1902981;75;20139;-39
2021/01/28 03:25:50;;;;;;;;;;;;;;;2.93;96.40;99268.95;1903045;75;20171;-38
2021/01/28 03:28:18;;;;;;;;;;;;;;;2.94;96.44;99281.03;1903320;75;20128;-38
2021/01/28 03:30:49;;;;;;;;;;;;;;;2.92;96.46;99287.50;1902876;75;20187;-39
2021/01/28 03:33:19;;;;;;;;;;;;;;;2.90;96.53;99281.47;1903104;75;20148;-38
2021/01/28 03:35:49;;;;;;;;;;;;;;;2.87;96.60;99295.75;1902963;75;20510;-38
2021/01/28 03:38:18;;;;;;;;;;;;;;;2.86;96.69;99285.41;1902308;75;20156;-39
2021/01/28 03:40:47;;;;;;;;;;;;;;;2.84;96.80;99278.08;1902256;75;20160;-39
2021/01/28 03:43:15;;;;;;;;;;;;;;;2.82;96.94;99289.77;1902624;75;20140;-38
2021/01/28 03:45:42;;;;;;;;;;;;;;;2.81;97.04;99304.86;1902473;75;20128;-39
2021/01/28 03:48:12;;;;;;;;;;;;;;;2.80;97.13;99287.18;1902622;75;20140;-40
2021/01/28 03:50:54;;;;;;;;;;;;;;;2.79;97.24;99266.48;1898824;75;20148;-41
2021/01/28 03:53:23;;;;;;;;;;;;;;;2.78;97.37;99277.27;1900843;75;20144;-39
2021/01/28 03:55:55;;;;;;;;;;;;;;;2.76;97.47;99276.84;1900470;75;20179;-39
2021/01/28 03:58:24;;;;;;;;;;;;;;;2.74;97.59;99274.30;1902467;75;20461;-39
2021/01/28 04:00:53;;;;;;;;;;;;;;;2.73;97.71;99253.59;1897127;75;20124;-39
2021/01/28 04:03:21;;;;;;;;;;;;;;;2.72;97.84;99251.44;1902386;75;20160;-37
2021/01/28 04:06:04;;;;;;;;;;;;;;;2.70;97.98;99240.23;1825829;75;20156;-39
2021/01/28 04:08:40;;;;;;;;;;;;;;;2.70;98.12;99241.53;1897154;75;20120;-39
2021/01/28 04:11:15;;;;;;;;;;;;;;;2.70;98.24;99251.02;1896257;75;20239;-39
2021/01/28 04:13:43;;;;;;;;;;;;;;;2.69;98.35;99270.03;1902574;75;20120;-39
2021/01/28 04:16:13;;;;;;;;;;;;;;;2.68;98.42;99273.05;1901878;75;20136;-39
2021/01/28 04:18:41;;;;;;;;;;;;;;;2.68;98.47;99264.43;1902575;75;20144;-38
2021/01/28 04:21:11;;;;;;;;;;;;;;;2.67;98.55;99275.20;1868680;75;20168;-38
2021/01/28 04:23:40;;;;;;;;;;;;;;;2.66;98.61;99270.04;1902191;75;20143;-39
2021/01/28 04:26:18;;;;;;;;;;;;;;;2.66;98.72;99272.62;1901205;75;20116;-39
2021/01/28 04:28:48;;;;;;;;;;;;;;;2.65;98.76;99270.91;1901818;75;20148;-40
2021/01/28 04:31:18;;;;;;;;;;;;;;;2.64;98.83;99271.77;1896982;75;20136;-40
2021/01/28 04:33:47;;;;;;;;;;;;;;;2.61;98.84;99279.57;1899625;75;20174;-40
2021/01/28 04:36:16;;;;;;;;;;;;;;;2.57;98.89;99272.25;1868116;75;20154;-41
2021/01/28 04:38:46;;;;;;;;;;;;;;;2.55;98.97;99278.33;1878312;75;20136;-39
2021/01/28 04:41:23;;;;;;;;;;;;;;;2.51;99.00;99277.91;1902270;75;20159;-40
2021/01/28 04:43:54;;;;;;;;;;;;;;;2.49;99.13;99272.77;1883633;75;20152;-39
2021/01/28 04:46:44;;;;;;;;;;;;;;;2.49;99.26;99270.61;1787007;80;20135;-40
2021/01/28 04:49:31;;;;;;;;;;;;;;;2.49;99.40;99258.55;1759651;82;20216;-39
2021/01/28 04:52:17;;;;;;;;;;;;;;;2.52;99.54;99255.05;1828499;77;20139;-39
2021/01/28 04:54:47;;;;;;;;;;;;;;;2.55;99.60;99263.67;1851043;77;20127;-37
2021/01/28 04:57:17;;;;;;;;;;;;;;;2.56;99.59;99282.63;1852567;77;20187;-39
2021/01/28 04:59:49;;;;;;;;;;;;;;;2.56;99.62;99283.93;1825056;77;20131;-39
2021/01/28 05:02:22;;;;;;;;;;;;;;;2.56;99.60;99295.11;1852607;77;20373;-40
2021/01/28 05:04:58;;;;;;;;;;;;;;;2.58;99.62;99317.09;1814966;78;20153;-39
2021/01/28 05:07:44;;;;;;;;;;;;;;;2.58;99.63;99321.83;1802478;78;20238;-40
2021/01/28 05:10:34;;;;;;;;;;;;;;;2.61;99.69;99333.47;1755085;80;20203;-39
2021/01/28 05:13:05;;;;;;;;;;;;;;;2.63;99.65;99328.27;1801030;80;20146;-39
2021/01/28 05:15:40;;;;;;;;;;;;;;;2.63;99.62;99321.36;1800603;78;20157;-39
2021/01/28 05:18:35;;;;;;;;;;;;;;;2.62;99.59;99320.96;1772347;81;20239;-40
2021/01/28 05:21:22;;;;;;;;;;;;;;;2.63;99.58;99327.83;1818186;78;20148;-39
2021/01/28 05:24:24;;;;;;;;;;;;;;;2.63;99.53;99343.78;1759083;78;20125;-39
2021/01/28 05:26:52;;;;;;;;;;;;;;;2.62;99.53;99339.08;1854560;77;20202;-40
2021/01/28 05:29:28;;;;;;;;;;;;;;;2.62;99.45;99317.52;1824643;77;20474;-40
2021/01/28 05:32:01;;;;;;;;;;;;;;;2.61;99.45;99307.59;1829415;77;20192;-41
2021/01/28 05:34:33;;;;;;;;;;;;;;;2.60;99.43;99313.64;1834867;77;20142;-42
2021/01/28 05:37:08;;;;;;;;;;;;;;;2.58;99.40;99315.80;1824640;77;20218;-39
2021/01/28 05:40:22;;;;;;;;;;;;;;;2.60;99.40;99316.22;1894916;74;20176;-40
2021/01/28 05:42:54;;;;;;;;;;;;;;;2.53;99.40;99303.34;1850053;77;20499;-40
2021/01/28 05:45:32;;;;;;;;;;;;;;;2.50;99.42;99327.48;1868333;75;20158;-40
2021/01/28 05:48:29;;;;;;;;;;;;;;;2.48;99.41;99325.36;1872552;75;20208;-40
2021/01/28 05:51:21;;;;;;;;;;;;;;;2.46;99.52;99305.11;1810209;77;20229;-42
2021/01/28 05:54:02;;;;;;;;;;;;;;;2.45;99.57;99296.91;1815332;78;20210;-39
2021/01/28 05:56:36;;;;;;;;;;;;;;;2.44;99.63;99300.80;1811723;78;20192;-40
2021/01/28 05:59:08;;;;;;;;;;;;;;;2.44;99.71;99286.14;1816927;78;20223;-41
2021/01/28 06:01:50;;;;;;;;;;;;;;;2.45;99.76;99283.13;1799515;78;20229;-40
2021/01/28 06:04:48;;;;;;;;;;;;;;;2.45;99.76;99293.03;1773691;78;20178;-41
2021/01/28 06:07:32;;;;;;;;;;;;;;;2.48;99.74;99305.97;1785816;78;20292;-42
2021/01/28 06:10:21;;;;;;;;;;;;;;;2.47;99.66;99294.33;1806782;78;20382;-40
2021/01/28 06:13:19;;;;;;;;;;;;;;;2.48;99.68;99312.86;1800475;80;20121;-41
2021/01/28 06:16:10;;;;;;;;;;;;;;;2.50;99.61;99295.15;1804237;78;20743;-40
2021/01/28 06:19:11;;;;;;;;;;;;;;;2.51;99.56;99339.98;1801493;78;20226;-43
2021/01/28 06:21:55;;;;;;;;;;;;;;;2.53;99.46;99335.67;1801247;78;20206;-42
2021/01/28 06:27:18;;;;;;;;;;;;;;;2.60;99.27;99331.75;1893827;74;20292;-40
2021/01/28 06:30:15;;;;;;;;;;;;;;;2.57;99.20;99351.16;1868085;75;20161;-40
2021/01/28 06:33:04;;;;;;;;;;;;;;;2.60;99.06;99352.87;1873091;75;20396;-43
2021/01/28 06:36:25;;;;;;;;;;;;;;;2.62;98.91;99328.72;1876140;75;20198;-40
2021/01/28 06:39:10;;;;;;;;;;;;;;;2.63;98.79;99360.16;1873442;75;20189;-42
2021/01/28 06:42:13;;;;;;;;;;;;;;;2.66;98.71;99351.11;1869269;75;20232;-39
2021/01/28 06:45:01;;;;;;;;;;;;;;;2.68;98.65;99350.67;1863656;75;20704;-44
2021/01/28 06:48:03;;;;;;;;;;;;;;;2.72;98.60;99356.23;1875953;75;20123;-41
2021/01/28 06:50:45;;;;;;;;;;;;;;;2.78;98.49;99350.16;1866703;75;20187;-43
2021/01/28 06:53:17;;;;;;;;;;;;;;;2.83;98.36;99367.80;1869185;75;20154;-41
2021/01/28 06:56:31;;;;;;;;;;;;;;;2.90;98.09;99375.09;1768376;80;20983;-42
2021/01/28 06:59:07;;;;;;;;;;;;;;;2.95;97.85;99365.58;1862760;75;20193;-41
2021/01/28 07:01:50;;;;;;;;;;;;;;;2.98;97.60;99342.24;1878922;75;20211;-42
2021/01/28 07:04:34;;;;;;;;;;;;;;;2.99;97.38;99328.00;1846727;75;20189;-42
2021/01/28 07:07:13;;;;;;;;;;;;;;;2.99;97.12;99336.20;1867380;75;20172;-43
2021/01/28 07:10:21;;;;;;;;;;;;;;;3.00;97.00;99368.55;1872063;75;20184;-42
2021/01/28 07:12:51;;;;;;;;;;;;;;;3.02;96.84;99355.61;1887707;75;20243;-42
2021/01/28 07:15:37;;;;;;;;;;;;;;;3.03;96.74;99373.69;1876310;75;20233;-43
2021/01/28 07:18:10;;;;;;;;;;;;;;;3.06;96.65;99372.82;1871462;75;20206;-41
2021/01/28 07:20:44;;;;;;;;;;;;;;;3.08;96.53;99355.55;1883082;75;20187;-42
2021/01/28 07:23:28;;;;;;;;;;;;;;;3.10;96.37;99352.49;1807917;78;20168;-43
2021/01/28 07:26:17;;;;;;;;;;;;;;;3.12;96.20;99358.53;1837284;78;20281;-41
2021/01/28 07:28:47;;;;;;;;;;;;;;;3.14;96.08;99361.54;1812589;78;20185;-43
2021/01/28 07:31:42;;;;;;;;;;;;;;;3.16;95.89;99364.95;1799366;79;20237;-43
2021/01/28 07:34:14;;;;;;;;;;;;;;;3.19;95.79;99356.31;1771703;79;20230;-43
2021/01/28 07:36:51;;;;;;;;;;;;;;;3.21;95.67;99362.35;1807154;78;20168;-43
2021/01/28 07:39:38;;;;;;;;;;;;;;;3.25;95.54;99367.05;1830132;77;20123;-43
2021/01/28 07:42:11;;;;;;;;;;;;;;;3.28;95.46;99357.98;1837356;77;20194;-42
2021/01/28 07:45:01;;;;;;;;;;;;;;;3.33;95.41;99347.13;1785911;77;20208;-42
2021/01/28 07:47:45;;;;;;;;;;;;;;;3.36;95.22;99354.42;1832654;77;20326;-42
2021/01/28 07:50:28;;;;;;;;;;;;;;;3.40;94.96;99343.61;1839724;77;20198;-43
2021/01/28 07:52:58;;;;;;;;;;;;;;;3.47;94.76;99347.86;1758462;78;20171;-44
2021/01/28 07:55:43;;;;;;;;;;;;;;;3.53;94.52;99342.18;1797567;77;20135;-43
2021/01/28 07:58:23;;;;;;;;;;;;;;;3.57;94.26;99333.48;1774144;78;20207;-43
2021/01/28 08:01:00;;;;;;;;;;;;;;;3.62;94.07;99324.36;1727859;79;20143;-42
2021/01/28 08:03:35;;;;;;;;;;;;;;;3.66;93.91;99319.59;1771089;78;20296;-45
2021/01/28 08:06:06;;;;;;;;;;;;;;;3.71;93.73;99329.45;1802689;78;20139;-43
2021/01/28 08:08:34;;;;;;;;;;;;;;;3.77;93.60;99315.56;1811193;78;20133;-43
2021/01/28 08:11:13;;;;;;;;;;;;;;;3.83;93.41;99320.24;1826744;77;20193;-44
2021/01/28 08:13:40;;;;;;;;;;;;;;;3.87;92.87;99333.58;1798785;78;20290;-42
2021/01/28 08:16:12;;;;;;;;;;;;;;;3.87;92.68;99331.45;1825898;77;20191;-43
2021/01/28 08:18:40;;;;;;;;;;;;;;;3.85;92.57;99314.61;1804089;78;20189;-44
2021/01/28 08:21:23;;;;;;;;;;;;;;;3.84;92.58;99312.89;1809765;77;20134;-44
2021/01/28 08:23:51;;;;;;;;;;;;;;;3.83;92.58;99316.79;1797607;78;20149;-43
2021/01/28 08:26:31;;;;;;;;;;;;;;;3.84;92.65;99317.22;1810803;77;20204;-42
2021/01/28 08:29:07;;;;;;;;;;;;;;;3.84;92.74;99316.78;1805713;78;20192;-41
2021/01/28 08:31:49;;;;;;;;;;;;;;;3.85;92.75;99307.27;1830444;78;20527;-42
2021/01/28 08:34:25;;;;;;;;;;;;;;;3.87;92.82;99299.05;1807446;77;20217;-42
2021/01/28 08:37:03;;;;;;;;;;;;;;;3.92;93.01;99293.36;1828706;77;21076;-44
2021/01/28 08:39:34;;;;;;;;;;;;;;;3.97;93.21;99288.97;1829268;77;20446;-40
2021/01/28 08:42:11;;;;;;;;;;;;;;;4.05;93.45;99286.28;1831069;77;20184;-43
2021/01/28 08:44:40;;;;;;;;;;;;;;;4.12;93.84;99282.30;1811238;78;20123;-42
2021/01/28 08:47:19;;;;;;;;;;;;;;;4.17;94.08;99267.95;1827902;77;20210;-42
2021/01/28 08:50:03;;;;;;;;;;;;;;;4.21;94.28;99257.94;1831079;77;20184;-44
2021/01/28 08:52:31;;;;;;;;;;;;;;;4.24;94.47;99251.43;1806323;78;20143;-43
2021/01/28 08:55:00;;;;;;;;;;;;;;;4.26;94.44;99247.95;1830575;77;20180;-43
2021/01/28 08:57:27;;;;;;;;;;;;;;;4.28;94.30;99266.06;1793825;77;20281;-42
2021/01/28 08:59:59;;;;;;;;;;;;;;;4.32;94.42;99255.64;1819396;78;20196;-43
2021/01/28 09:02:29;;;;;;;;;;;;;;;4.36;94.37;99239.13;1833449;77;20381;-43
2021/01/28 09:05:09;;;;;;;;;;;;;;;4.37;94.24;99236.96;1835440;77;20148;-42
2021/01/28 09:07:51;;;;;;;;;;;;;;;4.38;94.16;99249.50;1792142;79;20449;-42
2021/01/28 09:10:40;;;;;;;;;;;;;;;4.40;94.12;99247.27;1784938;78;20471;-43
2021/01/28 09:13:26;;;;;;;;;;;;;;;4.43;94.11;99247.68;1813085;77;20203;-44
2021/01/28 09:16:18;;;;;;;;;;;;;;;4.50;94.02;99251.90;1809770;78;20414;-43
2021/01/28 09:18:49;;;;;;;;;;;;;;;4.57;93.90;99262.60;1810415;78;20252;-43
2021/01/28 09:21:24;;;;;;;;;;;;;;;4.66;93.84;99297.48;1816078;78;20161;-44
2021/01/28 09:23:58;;;;;;;;;;;;;;;4.73;93.61;99300.84;1832631;77;20278;-43
2021/01/28 09:26:28;;;;;;;;;;;;;;;4.79;93.34;99307.27;1810859;78;20183;-42
2021/01/28 09:28:58;;;;;;;;;;;;;;;4.82;93.14;99302.01;1815979;78;20303;-44
2021/01/28 09:31:29;;;;;;;;;;;;;;;4.87;92.97;99314.91;1804387;78;20175;-43
2021/01/28 09:34:13;;;;;;;;;;;;;;;4.93;92.82;99309.17;1808167;78;20133;-43
2021/01/28 09:36:42;;;;;;;;;;;;;;;4.97;92.56;99319.95;1808018;78;20378;-43
2021/01/28 09:39:15;;;;;;;;;;;;;;;4.97;92.27;99326.44;1806984;78;20231;-43
2021/01/28 09:41:48;;;;;;;;;;;;;;;5.00;92.09;99330.27;1834039;77;20426;-43
2021/01/28 09:44:34;;;;;;;;;;;;;;;5.00;91.80;99323.78;1811505;78;20200;-43
2021/01/28 09:47:25;;;;;;;;;;;;;;;5.01;91.66;99304.72;1817249;78;20222;-43
2021/01/28 09:49:55;;;;;;;;;;;;;;;5.02;91.58;99314.67;1823871;77;20123;-44
2021/01/28 09:52:26;;;;;;;;;;;;;;;5.01;91.28;99316.84;1797432;78;20198;-43
2021/01/28 09:54:58;;;;;;;;;;;;;;;4.99;91.19;99318.16;1812790;78;20139;-43
2021/01/28 09:57:27;;;;;;;;;;;;;;;5.00;91.32;99296.94;1796826;79;20140;-42
2021/01/28 09:59:58;;;;;;;;;;;;;;;5.02;91.32;99300.38;1808705;78;20192;-43
2021/01/28 10:02:44;;;;;;;;;;;;;;;5.02;91.28;99314.67;1821440;78;20302;-43
2021/01/28 10:05:15;;;;;;;;;;;;;;;5.03;91.31;99317.69;1831818;77;20216;-43
2021/01/28 10:07:50;;;;;;;;;;;;;;;5.05;91.24;99325.88;1741994;78;20210;-43
2021/01/28 10:10:23;;;;;;;;;;;;;;;5.07;91.22;99330.59;1838977;77;20181;-43
2021/01/28 10:12:53;;;;;;;;;;;;;;;5.11;91.21;99344.41;1817574;78;20223;-43
2021/01/28 10:15:24;;;;;;;;;;;;;;;5.10;91.18;99357.83;1819948;78;20200;-44
2021/01/28 10:17:51;;;;;;;;;;;;;;;5.09;91.28;99358.70;1840146;77;20162;-43
2021/01/28 10:20:20;;;;;;;;;;;;;;;5.08;91.56;99366.08;1809807;78;20724;-42
2021/01/28 10:22:51;;;;;;;;;;;;;;;5.08;91.93;99382.96;1808994;78;20752;-52
2021/01/28 10:26:51;;;;;;;;;;;;;;;5.04;92.34;99363.13;1890984;74;20311;-43
2021/01/28 10:29:20;;;;;;;;;;;;;;;4.94;92.68;99361.53;1862697;75;20194;-43
2021/01/28 10:31:49;;;;;;;;;;;;;;;4.90;92.95;99361.17;1875330;75;20181;-43
2021/01/28 10:34:17;;;;;;;;;;;;;;;4.90;93.38;99367.67;1873637;75;20225;-51
2021/01/28 10:36:47;;;;;;;;;;;;;;;4.86;93.64;99363.85;1871556;75;20134;-43
2021/01/28 10:39:14;;;;;;;;;;;;;;;4.80;93.88;99362.17;1875603;75;20470;-42
2021/01/28 10:41:43;;;;;;;;;;;;;;;4.74;94.13;99363.13;1870196;75;20197;-43
2021/01/28 10:44:12;;;;;;;;;;;;;;;4.72;94.38;99354.97;1869685;75;20204;-44
2021/01/28 10:46:42;;;;;;;;;;;;;;;4.68;94.60;99350.68;1877907;75;20188;-44
2021/01/28 10:49:10;;;;;;;;;;;;;;;4.64;94.79;99353.78;1868350;75;20190;-43
2021/01/28 10:51:40;;;;;;;;;;;;;;;4.61;94.96;99361.59;1868421;75;20150;-48
2021/01/28 10:54:09;;;;;;;;;;;;;;;4.60;95.16;99368.09;1874871;75;20188;-44
2021/01/28 10:56:40;;;;;;;;;;;;;;;4.56;95.35;99367.30;1868674;75;20197;-46
2021/01/28 10:59:09;;;;;;;;;;;;;;;4.54;95.64;99372.94;1846771;75;20238;-44
2021/01/28 11:01:39;;;;;;;;;;;;;;;4.53;95.93;99371.69;1843633;75;20196;-42
2021/01/28 11:04:07;;;;;;;;;;;;;;;4.51;96.14;99362.61;1874526;75;20381;-43
2021/01/28 11:06:35;;;;;;;;;;;;;;;4.52;96.35;99369.96;1879822;75;20170;-43
2021/01/28 11:09:03;;;;;;;;;;;;;;;4.50;96.54;99372.57;1875577;75;20785;-44
2021/01/28 11:11:32;;;;;;;;;;;;;;;4.51;96.83;99370.83;1883786;75;20132;-42
2021/01/28 11:14:00;;;;;;;;;;;;;;;4.50;97.25;99369.98;1872466;75;20167;-43
2021/01/28 11:16:28;;;;;;;;;;;;;;;4.51;97.53;99378.63;1876510;75;20124;-44
2021/01/28 11:18:58;;;;;;;;;;;;;;;4.49;97.77;99387.72;1873070;75;20299;-43
2021/01/28 11:21:28;;;;;;;;;;;;;;;4.48;97.99;99382.53;1866444;75;20170;-43
2021/01/28 11:23:56;;;;;;;;;;;;;;;4.46;98.21;99379.12;1874790;75;20212;-42
2021/01/28 11:26:25;;;;;;;;;;;;;;;4.47;98.37;99382.11;1880302;75;20210;-43
2021/01/28 11:28:56;;;;;;;;;;;;;;;4.47;98.49;99379.52;1817188;75;20449;-43
2021/01/28 11:31:39;;;;;;;;;;;;;;;4.48;98.61;99364.38;1829792;75;20205;-43
2021/01/28 11:34:35;;;;;;;;;;;;;;;4.49;98.76;99364.80;1874010;75;20435;-43
2021/01/28 11:37:13;;;;;;;;;;;;;;;4.50;98.97;99375.16;1812252;75;20207;-44
2021/01/28 11:39:43;;;;;;;;;;;;;;;4.52;99.08;99369.96;1875371;75;20134;-46
2021/01/28 11:42:13;;;;;;;;;;;;;;;4.53;99.20;99362.13;1866248;75;20215;-43
2021/01/28 11:44:44;;;;;;;;;;;;;;;4.57;99.27;99358.63;1873005;75;20178;-43
2021/01/28 11:47:13;;;;;;;;;;;;;;;4.60;99.35;99359.01;1830785;75;20508;-43
2021/01/28 11:49:44;;;;;;;;;;;;;;;4.61;99.38;99366.78;1805874;75;20227;-42
2021/01/28 11:52:13;;;;;;;;;;;;;;;4.63;99.39;99358.98;1875897;75;20166;-43
2021/01/28 11:54:43;;;;;;;;;;;;;;;4.64;99.41;99349.88;1844018;75;20397;-44
2021/01/28 11:57:15;;;;;;;;;;;;;;;4.62;99.45;99329.57;1809791;77;20280;-44
2021/01/28 11:59:46;;;;;;;;;;;;;;;4.64;99.52;99339.50;1830726;75;20255;-49
2021/01/28 12:02:13;;;;;;;;;;;;;;;4.65;99.58;99345.11;1869711;75;20170;-44
2021/01/28 12:04:42;;;;;;;;;;;;;;;4.66;99.67;99349.40;1843591;77;20176;-43
2021/01/28 12:07:10;;;;;;;;;;;;;;;4.68;99.69;99353.28;1836103;77;20209;-42
2021/01/28 12:09:38;;;;;;;;;;;;;;;4.67;99.73;99358.05;1809132;77;20367;-44
2021/01/28 12:12:06;;;;;;;;;;;;;;;4.69;99.78;99365.38;1808686;78;20195;-43
2021/01/28 12:14:35;;;;;;;;;;;;;;;4.67;99.79;99365.39;1775209;78;20242;-43
2021/01/28 12:17:03;;;;;;;;;;;;;;;4.66;99.78;99366.27;1809704;78;20303;-43
2021/01/28 12:19:31;;;;;;;;;;;;;;;4.68;99.83;99368.85;1808376;78;20271;-44
2021/01/28 12:22:02;;;;;;;;;;;;;;;4.70;99.81;99374.45;1805663;78;20218;-44
2021/01/28 12:24:33;;;;;;;;;;;;;;;4.72;99.79;99385.69;1803453;78;20224;-44
2021/01/28 12:27:05;;;;;;;;;;;;;;;4.74;99.66;99392.98;1810992;78;20245;-43
2021/01/28 12:29:32;;;;;;;;;;;;;;;4.72;99.57;99390.87;1804546;78;20247;-44
2021/01/28 12:32:06;;;;;;;;;;;;;;;4.72;99.56;99397.80;1807371;78;20318;-44
2021/01/28 12:34:34;;;;;;;;;;;;;;;4.71;99.57;99403.87;1812466;78;21124;-44
2021/01/28 12:37:04;;;;;;;;;;;;;;;4.70;99.54;99406.05;1809340;78;20343;-44
2021/01/28 12:39:35;;;;;;;;;;;;;;;4.69;99.57;99418.59;1741057;78;20459;-44
2021/01/28 12:42:04;;;;;;;;;;;;;;;4.70;99.68;99420.31;1806149;78;20186;-43
2021/01/28 12:44:32;;;;;;;;;;;;;;;4.72;99.74;99425.06;1805106;78;20131;-44
2021/01/28 12:47:06;;;;;;;;;;;;;;;4.72;99.73;99432.84;1810164;78;20176;-43
2021/01/28 12:50:34;;;;;;;;;;;;;;;4.72;99.74;99443.23;1762358;78;20175;-45
2021/01/28 12:53:41;;;;;;;;;;;;;;;4.67;99.79;99441.97;1791284;78;20155;-43
2021/01/28 12:56:10;;;;;;;;;;;;;;;4.62;99.84;99450.70;1789942;78;20196;-42
2021/01/28 12:58:39;;;;;;;;;;;;;;;4.59;99.92;99443.83;1808770;78;20206;-43
2021/01/28 13:01:09;;;;;;;;;;;;;;;4.58;100.00;99455.52;1804585;78;20131;-44
2021/01/28 13:03:39;;;;;;;;;;;;;;;4.56;100.00;99453.38;1801722;78;20149;-43
2021/01/28 13:06:08;;;;;;;;;;;;;;;4.53;100.00;99450.84;1805653;78;20151;-43
2021/01/28 13:08:35;;;;;;;;;;;;;;;4.52;100.00;99449.98;1806436;78;20214;-43
2021/01/28 13:11:04;;;;;;;;;;;;;;;4.52;100.00;99442.19;1805614;78;20163;-45
2021/01/28 13:13:32;;;;;;;;;;;;;;;4.52;100.00;99448.68;1820483;78;20332;-43
2021/01/28 13:16:00;;;;;;;;;;;;;;;4.52;100.00;99446.52;1810164;78;20297;-43
2021/01/28 13:18:28;;;;;;;;;;;;;;;4.50;100.00;99443.94;1808004;78;20160;-43
2021/01/28 13:20:56;;;;;;;;;;;;;;;4.49;100.00;99451.30;1806962;78;20240;-43
2021/01/28 13:23:25;;;;;;;;;;;;;;;4.48;100.00;99446.12;1802112;78;20194;-44
2021/01/28 13:25:52;;;;;;;;;;;;;;;4.48;100.00;99444.82;1805094;78;20143;-43
2021/01/28 13:28:20;;;;;;;;;;;;;;;4.48;100.00;99450.01;1803065;78;20194;-42
2021/01/28 13:30:48;;;;;;;;;;;;;;;4.47;100.00;99442.66;1805467;78;20165;-47
2021/01/28 13:33:17;;;;;;;;;;;;;;;4.48;100.00;99444.38;1804669;78;20468;-43
2021/01/28 13:35:44;;;;;;;;;;;;;;;4.49;100.00;99442.65;1805895;78;20210;-43
2021/01/28 13:38:14;;;;;;;;;;;;;;;4.50;100.00;99432.70;1806549;78;20196;-43
2021/01/28 13:40:42;;;;;;;;;;;;;;;4.53;100.00;99440.45;1806208;78;20228;-43
2021/01/28 13:43:10;;;;;;;;;;;;;;;4.52;100.00;99433.11;1809550;78;20428;-43